sensor_id;sensor_type;location;lat;lon;timestamp;temperature;humidity
50690;DHT22;54375;48.298;11.238;2023-03-30T00:04:02;9.80;87.90
50690;DHT22;54375;48.298;11.238;2023-03-30T00:19:05;9.60;88.70
50690;DHT22;54375;48.298;11.238;2023-03-30T00:34:07;9.40;90.00
50690;DHT22;54375;48.298;11.238;2023-03-30T00:49:10;9.20;90.10
50690;DHT22;54375;48.298;11.238;2023-03-30T01:04:13;9.10;90.60
50690;DHT22;54375;48.298;11.238;2023-03-30T01:19:49;8.90;90.80
50690;DHT22;54375;48.298;11.238;2023-03-30T01:50:32;8.70;91.40
50690;DHT22;54375;48.298;11.238;2023-03-30T02:05:36;8.60;91.60
50690;DHT22;54375;48.298;11.238;2023-03-30T02:20:40;9.10;91.70
50690;DHT22;54375;48.298;11.238;2023-03-30T02:36:03;9.90;90.70
50690;DHT22;54375;48.298;11.238;2023-03-30T02:51:17;10.40;90.50
50690;DHT22;54375;48.298;11.238;2023-03-30T03:06:21;10.40;91.60
50690;DHT22;54375;48.298;11.238;2023-03-30T03:21:23;10.30;92.20
50690;DHT22;54375;48.298;11.238;2023-03-30T03:36:25;10.20;92.80
50690;DHT22;54375;48.298;11.238;2023-03-30T03:51:27;10.20;93.60
50690;DHT22;54375;48.298;11.238;2023-03-30T04:06:30;10.20;95.10
50690;DHT22;54375;48.298;11.238;2023-03-30T04:21:32;10.40;95.60
50690;DHT22;54375;48.298;11.238;2023-03-30T04:36:34;10.40;96.30
50690;DHT22;54375;48.298;11.238;2023-03-30T04:51:36;10.50;96.40
50690;DHT22;54375;48.298;11.238;2023-03-30T05:06:39;10.60;96.40
50690;DHT22;54375;48.298;11.238;2023-03-30T05:21:41;10.50;96.50
50690;DHT22;54375;48.298;11.238;2023-03-30T05:36:43;10.60;96.40
50690;DHT22;54375;48.298;11.238;2023-03-30T05:51:45;10.60;96.20
50690;DHT22;54375;48.298;11.238;2023-03-30T06:06:47;10.60;96.40
50690;DHT22;54375;48.298;11.238;2023-03-30T06:21:50;10.70;96.60
50690;DHT22;54375;48.298;11.238;2023-03-30T06:36:52;11.00;96.40
50690;DHT22;54375;48.298;11.238;2023-03-30T06:51:54;11.20;96.10
50690;DHT22;54375;48.298;11.238;2023-03-30T07:06:57;11.30;95.80
50690;DHT22;54375;48.298;11.238;2023-03-30T07:21:59;11.40;95.80
50690;DHT22;54375;48.298;11.238;2023-03-30T07:37:01;11.90;95.20
50690;DHT22;54375;48.298;11.238;2023-03-30T07:52:03;11.90;94.80
50690;DHT22;54375;48.298;11.238;2023-03-30T08:07:05;11.90;93.70
50690;DHT22;54375;48.298;11.238;2023-03-30T08:22:07;12.10;93.30
50690;DHT22;54375;48.298;11.238;2023-03-30T08:37:09;12.20;92.80
50690;DHT22;54375;48.298;11.238;2023-03-30T08:52:18;12.20;92.70
50690;DHT22;54375;48.298;11.238;2023-03-30T09:07:24;12.60;92.40
50690;DHT22;54375;48.298;11.238;2023-03-30T09:22:33;13.60;91.30
50690;DHT22;54375;48.298;11.238;2023-03-30T09:37:36;14.80;88.00
50690;DHT22;54375;48.298;11.238;2023-03-30T09:52:39;15.50;84.90
50690;DHT22;54375;48.298;11.238;2023-03-30T10:07:41;15.30;83.60
50690;DHT22;54375;48.298;11.238;2023-03-30T10:22:50;15.00;82.30
50690;DHT22;54375;48.298;11.238;2023-03-30T10:37:54;14.30;85.50
50690;DHT22;54375;48.298;11.238;2023-03-30T10:53:06;14.10;89.30
50690;DHT22;54375;48.298;11.238;2023-03-30T11:08:15;14.00;88.00
50690;DHT22;54375;48.298;11.238;2023-03-30T11:23:22;13.40;90.40
50690;DHT22;54375;48.298;11.238;2023-03-30T11:38:38;12.60;89.00
50690;DHT22;54375;48.298;11.238;2023-03-30T11:53:51;12.00;90.80
50690;DHT22;54375;48.298;11.238;2023-03-30T12:09:05;11.40;92.60
50690;DHT22;54375;48.298;11.238;2023-03-30T12:24:15;10.80;92.90
50690;DHT22;54375;48.298;11.238;2023-03-30T12:39:24;10.90;93.30
50690;DHT22;54375;48.298;11.238;2023-03-30T12:54:40;11.50;92.60
50690;DHT22;54375;48.298;11.238;2023-03-30T13:09:54;11.50;92.40
50690;DHT22;54375;48.298;11.238;2023-03-30T13:25:00;11.40;92.80
50690;DHT22;54375;48.298;11.238;2023-03-30T13:40:10;11.40;93.00
50690;DHT22;54375;48.298;11.238;2023-03-30T13:55:20;11.40;93.40
50690;DHT22;54375;48.298;11.238;2023-03-30T14:10:23;11.30;93.50
50690;DHT22;54375;48.298;11.238;2023-03-30T14:25:28;11.40;93.70
50690;DHT22;54375;48.298;11.238;2023-03-30T14:40:30;12.30;93.10
50690;DHT22;54375;48.298;11.238;2023-03-30T14:55:33;13.50;90.50
50690;DHT22;54375;48.298;11.238;2023-03-30T15:10:44;13.20;90.00
50690;DHT22;54375;48.298;11.238;2023-03-30T15:25:48;12.70;88.60
50690;DHT22;54375;48.298;11.238;2023-03-30T15:40:50;13.40;84.50
50690;DHT22;54375;48.298;11.238;2023-03-30T15:55:52;13.30;80.80
50690;DHT22;54375;48.298;11.238;2023-03-30T16:10:55;13.80;79.20
50690;DHT22;54375;48.298;11.238;2023-03-30T16:25:57;14.00;79.20
50690;DHT22;54375;48.298;11.238;2023-03-30T16:41:00;13.70;79.50
50690;DHT22;54375;48.298;11.238;2023-03-30T16:56:03;12.50;83.50
50690;DHT22;54375;48.298;11.238;2023-03-30T17:11:05;12.00;85.90
50690;DHT22;54375;48.298;11.238;2023-03-30T17:26:09;12.10;85.30
50690;DHT22;54375;48.298;11.238;2023-03-30T17:41:12;11.90;84.90
50690;DHT22;54375;48.298;11.238;2023-03-30T17:56:15;11.50;87.00
50690;DHT22;54375;48.298;11.238;2023-03-30T18:11:17;11.20;87.20
50690;DHT22;54375;48.298;11.238;2023-03-30T18:26:19;11.00;86.80
50690;DHT22;54375;48.298;11.238;2023-03-30T18:41:21;10.70;87.30
50690;DHT22;54375;48.298;11.238;2023-03-30T18:56:23;10.40;87.90
50690;DHT22;54375;48.298;11.238;2023-03-30T19:11:26;10.10;88.90
50690;DHT22;54375;48.298;11.238;2023-03-30T19:26:28;9.80;90.10
50690;DHT22;54375;48.298;11.238;2023-03-30T19:41:30;9.70;90.20
50690;DHT22;54375;48.298;11.238;2023-03-30T19:56:32;9.80;89.50
50690;DHT22;54375;48.298;11.238;2023-03-30T20:11:35;10.10;88.00
50690;DHT22;54375;48.298;11.238;2023-03-30T20:26:37;10.10;85.10
50690;DHT22;54375;48.298;11.238;2023-03-30T20:41:39;9.80;86.20
50690;DHT22;54375;48.298;11.238;2023-03-30T20:56:41;9.70;87.00
50690;DHT22;54375;48.298;11.238;2023-03-30T21:11:43;9.50;87.60
50690;DHT22;54375;48.298;11.238;2023-03-30T21:26:45;9.20;88.70
50690;DHT22;54375;48.298;11.238;2023-03-30T21:41:48;9.00;89.40
50690;DHT22;54375;48.298;11.238;2023-03-30T21:56:50;8.70;90.00
50690;DHT22;54375;48.298;11.238;2023-03-30T22:11:53;8.30;90.70
50690;DHT22;54375;48.298;11.238;2023-03-30T22:26:55;8.00;91.20
50690;DHT22;54375;48.298;11.238;2023-03-30T22:41:57;7.50;91.50
50690;DHT22;54375;48.298;11.238;2023-03-30T22:56:59;7.30;92.80
50690;DHT22;54375;48.298;11.238;2023-03-30T23:12:02;7.40;93.40
50690;DHT22;54375;48.298;11.238;2023-03-30T23:27:04;7.70;92.90
50690;DHT22;54375;48.298;11.238;2023-03-30T23:42:06;7.80;92.50
50690;DHT22;54375;48.298;11.238;2023-03-30T23:57:09;7.80;92.10
